sensor_id;sensor_type;location;lat;lon;timestamp;P1;durP1;ratioP1;P2;durP2;ratioP2
25249;SDS011;13201;51.148;13.738;2023-03-01T00:01:05;23.17;;;9.77;;
25249;SDS011;13201;51.148;13.738;2023-03-01T00:03:32;22.45;;;9.82;;
25249;SDS011;13201;51.148;13.738;2023-03-01T00:05:58;19.05;;;10.77;;
25249;SDS011;13201;51.148;13.738;2023-03-01T00:08:25;21.70;;;10.60;;
25249;SDS011;13201;51.148;13.738;2023-03-01T00:11:05;20.77;;;9.55;;
25249;SDS011;13201;51.148;13.738;2023-03-01T00:13:31;22.20;;;9.95;;
25249;SDS011;13201;51.148;13.738;2023-03-01T00:15:57;22.77;;;10.10;;
25249;SDS011;13201;51.148;13.738;2023-03-01T00:18:23;23.50;;;9.93;;
25249;SDS011;13201;51.148;13.738;2023-03-01T00:20:50;25.60;;;9.93;;
25249;SDS011;13201;51.148;13.738;2023-03-01T00:23:20;21.92;;;10.07;;
25249;SDS011;13201;51.148;13.738;2023-03-01T00:25:46;21.10;;;9.32;;
25249;SDS011;13201;51.148;13.738;2023-03-01T00:28:12;21.85;;;9.90;;
25249;SDS011;13201;51.148;13.738;2023-03-01T00:30:38;25.50;;;9.80;;
25249;SDS011;13201;51.148;13.738;2023-03-01T00:33:04;20.73;;;9.57;;
25249;SDS011;13201;51.148;13.738;2023-03-01T00:35:29;17.88;;;8.73;;
25249;SDS011;13201;51.148;13.738;2023-03-01T00:37:58;22.92;;;9.38;;
25249;SDS011;13201;51.148;13.738;2023-03-01T00:40:24;18.33;;;9.25;;
25249;SDS011;13201;51.148;13.738;2023-03-01T00:45:16;21.30;;;10.23;;
25249;SDS011;13201;51.148;13.738;2023-03-01T00:47:42;26.07;;;9.57;;
25249;SDS011;13201;51.148;13.738;2023-03-01T00:50:08;17.67;;;9.18;;
25249;SDS011;13201;51.148;13.738;2023-03-01T00:52:35;22.15;;;9.70;;
25249;SDS011;13201;51.148;13.738;2023-03-01T00:55:01;19.33;;;7.37;;
25249;SDS011;13201;51.148;13.738;2023-03-01T00:57:27;13.33;;;6.63;;
25249;SDS011;13201;51.148;13.738;2023-03-01T00:59:53;19.53;;;9.10;;
25249;SDS011;13201;51.148;13.738;2023-03-01T01:02:19;16.53;;;7.33;;
25249;SDS011;13201;51.148;13.738;2023-03-01T01:04:45;20.30;;;8.95;;
25249;SDS011;13201;51.148;13.738;2023-03-01T01:30:56;22.77;;;9.48;;
25249;SDS011;13201;51.148;13.738;2023-03-01T01:33:22;23.07;;;9.33;;
25249;SDS011;13201;51.148;13.738;2023-03-01T01:35:48;14.87;;;7.90;;
25249;SDS011;13201;51.148;13.738;2023-03-01T01:38:13;20.53;;;9.00;;
25249;SDS011;13201;51.148;13.738;2023-03-01T01:40:43;23.07;;;9.43;;
25249;SDS011;13201;51.148;13.738;2023-03-01T01:43:32;22.92;;;9.98;;
25249;SDS011;13201;51.148;13.738;2023-03-01T01:46:02;21.08;;;9.90;;
25249;SDS011;13201;51.148;13.738;2023-03-01T01:48:42;16.77;;;8.65;;
25249;SDS011;13201;51.148;13.738;2023-03-01T01:51:13;19.15;;;8.60;;
25249;SDS011;13201;51.148;13.738;2023-03-01T01:53:44;18.40;;;9.15;;
25249;SDS011;13201;51.148;13.738;2023-03-01T01:56:15;15.63;;;8.32;;
25249;SDS011;13201;51.148;13.738;2023-03-01T01:58:42;22.10;;;9.10;;
25249;SDS011;13201;51.148;13.738;2023-03-01T02:01:09;21.45;;;9.20;;
25249;SDS011;13201;51.148;13.738;2023-03-01T02:03:36;21.98;;;9.30;;
25249;SDS011;13201;51.148;13.738;2023-03-01T02:06:11;17.05;;;8.32;;
25249;SDS011;13201;51.148;13.738;2023-03-01T02:08:43;18.73;;;7.95;;
25249;SDS011;13201;51.148;13.738;2023-03-01T02:11:10;20.15;;;8.93;;
25249;SDS011;13201;51.148;13.738;2023-03-01T02:13:39;17.45;;;7.97;;
25249;SDS011;13201;51.148;13.738;2023-03-01T02:18:36;17.63;;;8.13;;
25249;SDS011;13201;51.148;13.738;2023-03-01T02:23:48;19.88;;;9.02;;
25249;SDS011;13201;51.148;13.738;2023-03-01T02:29:10;21.95;;;9.13;;
25249;SDS011;13201;51.148;13.738;2023-03-01T02:31:36;20.23;;;8.30;;
25249;SDS011;13201;51.148;13.738;2023-03-01T02:34:28;18.75;;;8.13;;
25249;SDS011;13201;51.148;13.738;2023-03-01T02:36:58;15.07;;;8.30;;
25249;SDS011;13201;51.148;13.738;2023-03-01T02:39:48;20.02;;;8.50;;
25249;SDS011;13201;51.148;13.738;2023-03-01T02:42:17;19.30;;;8.40;;
25249;SDS011;13201;51.148;13.738;2023-03-01T02:44:48;18.05;;;8.15;;
25249;SDS011;13201;51.148;13.738;2023-03-01T02:47:14;20.35;;;9.30;;
25249;SDS011;13201;51.148;13.738;2023-03-01T02:49:40;20.67;;;8.60;;
25249;SDS011;13201;51.148;13.738;2023-03-01T02:57:40;20.33;;;8.82;;
25249;SDS011;13201;51.148;13.738;2023-03-01T03:00:12;20.35;;;9.50;;
25249;SDS011;13201;51.148;13.738;2023-03-01T03:02:49;18.75;;;8.88;;
25249;SDS011;13201;51.148;13.738;2023-03-01T03:05:21;19.13;;;8.48;;
25249;SDS011;13201;51.148;13.738;2023-03-01T03:07:48;22.92;;;9.20;;
25249;SDS011;13201;51.148;13.738;2023-03-01T03:10:18;16.95;;;8.65;;
25249;SDS011;13201;51.148;13.738;2023-03-01T03:12:50;20.30;;;8.45;;
25249;SDS011;13201;51.148;13.738;2023-03-01T03:15:22;21.60;;;8.70;;
25249;SDS011;13201;51.148;13.738;2023-03-01T03:17:48;18.38;;;8.30;;
25249;SDS011;13201;51.148;13.738;2023-03-01T03:20:16;18.33;;;8.60;;
25249;SDS011;13201;51.148;13.738;2023-03-01T03:22:46;18.42;;;8.43;;
25249;SDS011;13201;51.148;13.738;2023-03-01T03:25:13;18.15;;;8.55;;
25249;SDS011;13201;51.148;13.738;2023-03-01T03:27:40;21.37;;;8.83;;
25249;SDS011;13201;51.148;13.738;2023-03-01T03:30:09;19.08;;;8.40;;
25249;SDS011;13201;51.148;13.738;2023-03-01T03:32:40;17.88;;;9.20;;
25249;SDS011;13201;51.148;13.738;2023-03-01T03:35:17;22.05;;;8.32;;
25249;SDS011;13201;51.148;13.738;2023-03-01T03:37:44;21.00;;;9.13;;
25249;SDS011;13201;51.148;13.738;2023-03-01T03:40:33;22.73;;;9.15;;
25249;SDS011;13201;51.148;13.738;2023-03-01T03:43:07;17.10;;;8.68;;
25249;SDS011;13201;51.148;13.738;2023-03-01T03:45:40;18.58;;;8.15;;
25249;SDS011;13201;51.148;13.738;2023-03-01T03:48:08;22.42;;;8.45;;
25249;SDS011;13201;51.148;13.738;2023-03-01T03:50:35;19.63;;;8.50;;
25249;SDS011;13201;51.148;13.738;2023-03-01T03:53:02;15.85;;;8.00;;
25249;SDS011;13201;51.148;13.738;2023-03-01T03:55:30;18.80;;;8.40;;
25249;SDS011;13201;51.148;13.738;2023-03-01T03:57:59;22.93;;;8.53;;
25249;SDS011;13201;51.148;13.738;2023-03-01T04:00:37;20.58;;;8.77;;
25249;SDS011;13201;51.148;13.738;2023-03-01T04:03:04;19.25;;;8.15;;
25249;SDS011;13201;51.148;13.738;2023-03-01T04:05:31;18.83;;;8.50;;
25249;SDS011;13201;51.148;13.738;2023-03-01T04:07:57;19.48;;;8.00;;
25249;SDS011;13201;51.148;13.738;2023-03-01T04:10:42;20.27;;;8.68;;
25249;SDS011;13201;51.148;13.738;2023-03-01T04:13:13;17.00;;;8.10;;
25249;SDS011;13201;51.148;13.738;2023-03-01T04:15:41;23.42;;;9.23;;
25249;SDS011;13201;51.148;13.738;2023-03-01T04:18:13;17.13;;;8.10;;
25249;SDS011;13201;51.148;13.738;2023-03-01T04:20:41;18.77;;;8.65;;
25249;SDS011;13201;51.148;13.738;2023-03-01T04:23:09;17.10;;;8.25;;
25249;SDS011;13201;51.148;13.738;2023-03-01T04:31:01;17.95;;;7.68;;
25249;SDS011;13201;51.148;13.738;2023-03-01T04:33:37;18.60;;;8.32;;
25249;SDS011;13201;51.148;13.738;2023-03-01T04:36:07;19.73;;;8.18;;
25249;SDS011;13201;51.148;13.738;2023-03-01T04:41:02;18.85;;;7.80;;
25249;SDS011;13201;51.148;13.738;2023-03-01T04:43:29;17.23;;;8.48;;
25249;SDS011;13201;51.148;13.738;2023-03-01T04:45:59;16.47;;;8.23;;
25249;SDS011;13201;51.148;13.738;2023-03-01T04:48:30;16.08;;;8.48;;
25249;SDS011;13201;51.148;13.738;2023-03-01T04:50:57;20.02;;;8.55;;
25249;SDS011;13201;51.148;13.738;2023-03-01T04:53:24;19.65;;;8.43;;
25249;SDS011;13201;51.148;13.738;2023-03-01T04:55:50;19.52;;;8.60;;
25249;SDS011;13201;51.148;13.738;2023-03-01T04:58:16;13.60;;;6.10;;
25249;SDS011;13201;51.148;13.738;2023-03-01T05:00:41;23.37;;;8.60;;
25249;SDS011;13201;51.148;13.738;2023-03-01T05:03:08;21.23;;;9.33;;
25249;SDS011;13201;51.148;13.738;2023-03-01T05:05:35;17.25;;;8.60;;
25249;SDS011;13201;51.148;13.738;2023-03-01T05:08:04;23.65;;;9.60;;
25249;SDS011;13201;51.148;13.738;2023-03-01T05:10:32;24.45;;;9.18;;
25249;SDS011;13201;51.148;13.738;2023-03-01T05:13:00;21.73;;;8.45;;
25249;SDS011;13201;51.148;13.738;2023-03-01T05:20:20;17.15;;;7.93;;
25249;SDS011;13201;51.148;13.738;2023-03-01T05:22:48;19.17;;;8.68;;
25249;SDS011;13201;51.148;13.738;2023-03-01T05:25:14;19.75;;;8.70;;
25249;SDS011;13201;51.148;13.738;2023-03-01T05:27:40;23.03;;;9.13;;
25249;SDS011;13201;51.148;13.738;2023-03-01T05:30:06;19.73;;;8.87;;
25249;SDS011;13201;51.148;13.738;2023-03-01T05:32:39;22.05;;;9.23;;
25249;SDS011;13201;51.148;13.738;2023-03-01T05:35:09;21.75;;;9.25;;
25249;SDS011;13201;51.148;13.738;2023-03-01T05:37:43;22.50;;;9.43;;
25249;SDS011;13201;51.148;13.738;2023-03-01T05:40:11;21.45;;;9.25;;
25249;SDS011;13201;51.148;13.738;2023-03-01T05:42:47;18.58;;;9.07;;
25249;SDS011;13201;51.148;13.738;2023-03-01T05:45:15;20.40;;;8.85;;
25249;SDS011;13201;51.148;13.738;2023-03-01T05:47:42;22.52;;;9.95;;
25249;SDS011;13201;51.148;13.738;2023-03-01T05:55:13;19.88;;;8.50;;
25249;SDS011;13201;51.148;13.738;2023-03-01T05:57:40;26.73;;;10.43;;
25249;SDS011;13201;51.148;13.738;2023-03-01T06:00:06;24.60;;;10.60;;
25249;SDS011;13201;51.148;13.738;2023-03-01T06:02:32;19.40;;;9.32;;
25249;SDS011;13201;51.148;13.738;2023-03-01T06:04:58;24.43;;;9.53;;
25249;SDS011;13201;51.148;13.738;2023-03-01T06:07:24;20.77;;;9.77;;
25249;SDS011;13201;51.148;13.738;2023-03-01T06:09:49;22.63;;;10.80;;
25249;SDS011;13201;51.148;13.738;2023-03-01T06:12:15;26.07;;;10.97;;
25249;SDS011;13201;51.148;13.738;2023-03-01T06:14:41;19.63;;;9.30;;
25249;SDS011;13201;51.148;13.738;2023-03-01T06:17:06;22.70;;;9.87;;
25249;SDS011;13201;51.148;13.738;2023-03-01T06:19:32;23.83;;;9.60;;
25249;SDS011;13201;51.148;13.738;2023-03-01T06:21:58;16.43;;;9.07;;
25249;SDS011;13201;51.148;13.738;2023-03-01T06:24:23;19.77;;;9.57;;
25249;SDS011;13201;51.148;13.738;2023-03-01T06:26:49;16.80;;;7.90;;
25249;SDS011;13201;51.148;13.738;2023-03-01T06:29:15;15.53;;;6.47;;
25249;SDS011;13201;51.148;13.738;2023-03-01T06:31:40;20.23;;;8.80;;
25249;SDS011;13201;51.148;13.738;2023-03-01T06:34:06;22.33;;;10.13;;
25249;SDS011;13201;51.148;13.738;2023-03-01T06:36:32;19.63;;;9.40;;
25249;SDS011;13201;51.148;13.738;2023-03-01T06:38:57;22.60;;;9.77;;
25249;SDS011;13201;51.148;13.738;2023-03-01T06:41:23;20.27;;;9.63;;
25249;SDS011;13201;51.148;13.738;2023-03-01T06:43:49;22.37;;;9.80;;
25249;SDS011;13201;51.148;13.738;2023-03-01T06:46:14;18.23;;;7.30;;
25249;SDS011;13201;51.148;13.738;2023-03-01T06:48:41;22.48;;;9.85;;
25249;SDS011;13201;51.148;13.738;2023-03-01T06:51:06;23.90;;;9.60;;
25249;SDS011;13201;51.148;13.738;2023-03-01T06:53:32;23.83;;;10.80;;
25249;SDS011;13201;51.148;13.738;2023-03-01T06:55:58;24.17;;;9.83;;
25249;SDS011;13201;51.148;13.738;2023-03-01T06:58:25;22.15;;;9.45;;
25249;SDS011;13201;51.148;13.738;2023-03-01T07:00:51;26.00;;;9.57;;
25249;SDS011;13201;51.148;13.738;2023-03-01T07:03:17;24.20;;;9.60;;
25249;SDS011;13201;51.148;13.738;2023-03-01T07:05:43;24.45;;;10.02;;
25249;SDS011;13201;51.148;13.738;2023-03-01T07:08:09;20.97;;;8.50;;
25249;SDS011;13201;51.148;13.738;2023-03-01T07:10:35;26.02;;;10.57;;
25249;SDS011;13201;51.148;13.738;2023-03-01T07:13:01;22.07;;;10.10;;
25249;SDS011;13201;51.148;13.738;2023-03-01T07:15:27;25.63;;;10.17;;
25249;SDS011;13201;51.148;13.738;2023-03-01T07:17:53;22.23;;;10.98;;
25249;SDS011;13201;51.148;13.738;2023-03-01T07:20:19;21.43;;;10.27;;
25249;SDS011;13201;51.148;13.738;2023-03-01T07:22:50;25.48;;;10.18;;
25249;SDS011;13201;51.148;13.738;2023-03-01T07:25:19;25.38;;;11.05;;
25249;SDS011;13201;51.148;13.738;2023-03-01T07:27:49;24.93;;;11.10;;
25249;SDS011;13201;51.148;13.738;2023-03-01T07:30:16;27.95;;;10.90;;
25249;SDS011;13201;51.148;13.738;2023-03-01T07:32:42;26.40;;;10.98;;
25249;SDS011;13201;51.148;13.738;2023-03-01T07:35:08;26.63;;;12.07;;
25249;SDS011;13201;51.148;13.738;2023-03-01T07:37:33;30.10;;;11.77;;
25249;SDS011;13201;51.148;13.738;2023-03-01T07:39:59;29.67;;;11.70;;
25249;SDS011;13201;51.148;13.738;2023-03-01T07:42:25;27.13;;;11.57;;
25249;SDS011;13201;51.148;13.738;2023-03-01T07:44:50;25.93;;;11.93;;
25249;SDS011;13201;51.148;13.738;2023-03-01T07:47:16;29.10;;;11.93;;
25249;SDS011;13201;51.148;13.738;2023-03-01T07:49:42;32.10;;;12.73;;
25249;SDS011;13201;51.148;13.738;2023-03-01T07:52:09;31.23;;;12.60;;
25249;SDS011;13201;51.148;13.738;2023-03-01T07:54:38;27.58;;;11.57;;
25249;SDS011;13201;51.148;13.738;2023-03-01T07:57:03;29.47;;;12.10;;
25249;SDS011;13201;51.148;13.738;2023-03-01T07:59:29;30.93;;;11.97;;
25249;SDS011;13201;51.148;13.738;2023-03-01T08:01:55;28.37;;;12.90;;
25249;SDS011;13201;51.148;13.738;2023-03-01T08:04:22;25.63;;;11.73;;
25249;SDS011;13201;51.148;13.738;2023-03-01T08:06:49;26.17;;;12.13;;
25249;SDS011;13201;51.148;13.738;2023-03-01T08:09:16;31.10;;;12.40;;
25249;SDS011;13201;51.148;13.738;2023-03-01T08:11:41;32.43;;;12.40;;
25249;SDS011;13201;51.148;13.738;2023-03-01T08:14:07;28.43;;;11.57;;
25249;SDS011;13201;51.148;13.738;2023-03-01T08:16:33;27.90;;;12.30;;
25249;SDS011;13201;51.148;13.738;2023-03-01T08:19:07;25.35;;;12.70;;
25249;SDS011;13201;51.148;13.738;2023-03-01T08:21:34;27.25;;;11.52;;
25249;SDS011;13201;51.148;13.738;2023-03-01T08:24:04;28.70;;;12.90;;
25249;SDS011;13201;51.148;13.738;2023-03-01T08:26:31;29.73;;;12.45;;
25249;SDS011;13201;51.148;13.738;2023-03-01T08:28:57;30.65;;;12.77;;
25249;SDS011;13201;51.148;13.738;2023-03-01T08:33:50;32.57;;;12.03;;
25249;SDS011;13201;51.148;13.738;2023-03-01T08:36:22;30.73;;;12.50;;
25249;SDS011;13201;51.148;13.738;2023-03-01T08:38:49;33.67;;;13.07;;
25249;SDS011;13201;51.148;13.738;2023-03-01T08:41:15;52.53;;;19.53;;
25249;SDS011;13201;51.148;13.738;2023-03-01T08:43:41;30.80;;;12.55;;
25249;SDS011;13201;51.148;13.738;2023-03-01T08:46:07;31.30;;;13.13;;
25249;SDS011;13201;51.148;13.738;2023-03-01T08:48:33;28.87;;;13.23;;
25249;SDS011;13201;51.148;13.738;2023-03-01T08:51:09;28.27;;;12.67;;
25249;SDS011;13201;51.148;13.738;2023-03-01T08:53:36;31.38;;;13.55;;
25249;SDS011;13201;51.148;13.738;2023-03-01T08:56:02;21.90;;;9.77;;
25249;SDS011;13201;51.148;13.738;2023-03-01T08:58:28;32.30;;;14.15;;
25249;SDS011;13201;51.148;13.738;2023-03-01T09:00:54;33.15;;;13.90;;
25249;SDS011;13201;51.148;13.738;2023-03-01T09:03:21;68.70;;;26.25;;
25249;SDS011;13201;51.148;13.738;2023-03-01T09:05:47;35.10;;;15.32;;
25249;SDS011;13201;51.148;13.738;2023-03-01T09:08:15;37.13;;;13.88;;
25249;SDS011;13201;51.148;13.738;2023-03-01T09:10:41;31.92;;;13.20;;
25249;SDS011;13201;51.148;13.738;2023-03-01T09:13:07;31.13;;;11.80;;
25249;SDS011;13201;51.148;13.738;2023-03-01T09:15:33;28.30;;;11.90;;
25249;SDS011;13201;51.148;13.738;2023-03-01T09:17:59;31.87;;;12.67;;
25249;SDS011;13201;51.148;13.738;2023-03-01T09:20:24;29.33;;;14.03;;
25249;SDS011;13201;51.148;13.738;2023-03-01T09:22:50;35.53;;;15.33;;
25249;SDS011;13201;51.148;13.738;2023-03-01T09:25:16;29.17;;;13.23;;
25249;SDS011;13201;51.148;13.738;2023-03-01T09:27:41;31.00;;;13.60;;
25249;SDS011;13201;51.148;13.738;2023-03-01T09:30:07;30.67;;;12.97;;
25249;SDS011;13201;51.148;13.738;2023-03-01T09:32:34;22.95;;;11.82;;
25249;SDS011;13201;51.148;13.738;2023-03-01T09:34:59;25.47;;;11.60;;
25249;SDS011;13201;51.148;13.738;2023-03-01T09:37:34;26.73;;;12.13;;
25249;SDS011;13201;51.148;13.738;2023-03-01T09:40:00;30.52;;;12.70;;
25249;SDS011;13201;51.148;13.738;2023-03-01T09:42:29;29.83;;;12.57;;
25249;SDS011;13201;51.148;13.738;2023-03-01T09:47:32;34.65;;;12.55;;
25249;SDS011;13201;51.148;13.738;2023-03-01T09:55:01;35.53;;;14.80;;
25249;SDS011;13201;51.148;13.738;2023-03-01T09:57:54;28.25;;;12.38;;
25249;SDS011;13201;51.148;13.738;2023-03-01T10:05:52;29.45;;;11.15;;
25249;SDS011;13201;51.148;13.738;2023-03-01T10:08:47;24.23;;;11.35;;
25249;SDS011;13201;51.148;13.738;2023-03-01T10:11:22;35.58;;;14.45;;
25249;SDS011;13201;51.148;13.738;2023-03-01T10:14:07;23.63;;;10.85;;
25249;SDS011;13201;51.148;13.738;2023-03-01T10:16:56;29.00;;;11.55;;
25249;SDS011;13201;51.148;13.738;2023-03-01T10:19:43;20.67;;;9.27;;
25249;SDS011;13201;51.148;13.738;2023-03-01T10:22:13;26.58;;;11.00;;
25249;SDS011;13201;51.148;13.738;2023-03-01T10:24:40;24.23;;;10.65;;
25249;SDS011;13201;51.148;13.738;2023-03-01T10:27:12;24.38;;;10.13;;
25249;SDS011;13201;51.148;13.738;2023-03-01T10:32:24;20.05;;;9.88;;
25249;SDS011;13201;51.148;13.738;2023-03-01T10:34:50;19.13;;;8.90;;
25249;SDS011;13201;51.148;13.738;2023-03-01T10:37:17;21.38;;;9.55;;
25249;SDS011;13201;51.148;13.738;2023-03-01T10:40:05;19.63;;;9.20;;
25249;SDS011;13201;51.148;13.738;2023-03-01T10:42:45;22.40;;;9.77;;
25249;SDS011;13201;51.148;13.738;2023-03-01T10:53:36;22.17;;;10.35;;
25249;SDS011;13201;51.148;13.738;2023-03-01T10:56:10;22.33;;;9.75;;
25249;SDS011;13201;51.148;13.738;2023-03-01T10:58:56;22.33;;;10.43;;
25249;SDS011;13201;51.148;13.738;2023-03-01T11:01:34;21.13;;;10.10;;
25249;SDS011;13201;51.148;13.738;2023-03-01T11:06:32;28.75;;;11.05;;
25249;SDS011;13201;51.148;13.738;2023-03-01T11:11:43;18.08;;;9.18;;
25249;SDS011;13201;51.148;13.738;2023-03-01T11:14:14;19.67;;;8.75;;
25249;SDS011;13201;51.148;13.738;2023-03-01T11:16:42;18.77;;;8.82;;
25249;SDS011;13201;51.148;13.738;2023-03-01T11:21:39;22.92;;;9.73;;
25249;SDS011;13201;51.148;13.738;2023-03-01T11:24:29;18.88;;;9.40;;
25249;SDS011;13201;51.148;13.738;2023-03-01T11:26:56;19.60;;;9.13;;
25249;SDS011;13201;51.148;13.738;2023-03-01T11:32:01;18.38;;;8.18;;
25249;SDS011;13201;51.148;13.738;2023-03-01T11:34:38;18.15;;;7.90;;
25249;SDS011;13201;51.148;13.738;2023-03-01T11:48:32;16.58;;;8.52;;
25249;SDS011;13201;51.148;13.738;2023-03-01T11:51:05;13.80;;;7.43;;
25249;SDS011;13201;51.148;13.738;2023-03-01T11:56:38;20.55;;;9.40;;
25249;SDS011;13201;51.148;13.738;2023-03-01T12:07:14;17.92;;;9.35;;
25249;SDS011;13201;51.148;13.738;2023-03-01T12:12:32;21.52;;;8.93;;
25249;SDS011;13201;51.148;13.738;2023-03-01T12:38:05;16.08;;;8.35;;
25249;SDS011;13201;51.148;13.738;2023-03-01T12:49:08;20.67;;;9.35;;
25249;SDS011;13201;51.148;13.738;2023-03-01T12:51:40;18.10;;;8.80;;
25249;SDS011;13201;51.148;13.738;2023-03-01T12:54:20;18.08;;;9.10;;
25249;SDS011;13201;51.148;13.738;2023-03-01T12:56:53;17.98;;;8.23;;
25249;SDS011;13201;51.148;13.738;2023-03-01T13:07:28;21.20;;;10.38;;
25249;SDS011;13201;51.148;13.738;2023-03-01T13:17:56;19.17;;;9.88;;
25249;SDS011;13201;51.148;13.738;2023-03-01T13:33:50;20.02;;;9.55;;
25249;SDS011;13201;51.148;13.738;2023-03-01T13:39:31;18.98;;;10.20;;
25249;SDS011;13201;51.148;13.738;2023-03-01T13:42:47;20.88;;;9.55;;
25249;SDS011;13201;51.148;13.738;2023-03-01T13:44:59;19.92;;;10.20;;
25249;SDS011;13201;51.148;13.738;2023-03-01T13:47:25;17.42;;;9.70;;
25249;SDS011;13201;51.148;13.738;2023-03-01T13:57:42;17.80;;;8.52;;
25249;SDS011;13201;51.148;13.738;2023-03-01T14:03:20;18.75;;;9.15;;
25249;SDS011;13201;51.148;13.738;2023-03-01T14:06:04;20.45;;;9.88;;
25249;SDS011;13201;51.148;13.738;2023-03-01T14:08:32;16.67;;;8.23;;
25249;SDS011;13201;51.148;13.738;2023-03-01T14:21:24;17.83;;;8.95;;
25249;SDS011;13201;51.148;13.738;2023-03-01T14:23:51;18.63;;;8.80;;
25249;SDS011;13201;51.148;13.738;2023-03-01T14:26:23;16.27;;;8.57;;
25249;SDS011;13201;51.148;13.738;2023-03-01T14:28:49;18.65;;;8.48;;
25249;SDS011;13201;51.148;13.738;2023-03-01T14:33:57;15.85;;;8.10;;
25249;SDS011;13201;51.148;13.738;2023-03-01T14:36:26;18.80;;;9.52;;
25249;SDS011;13201;51.148;13.738;2023-03-01T14:38:53;18.27;;;9.50;;
25249;SDS011;13201;51.148;13.738;2023-03-01T14:43:49;20.80;;;9.32;;
25249;SDS011;13201;51.148;13.738;2023-03-01T14:46:20;16.25;;;9.00;;
25249;SDS011;13201;51.148;13.738;2023-03-01T14:48:57;16.88;;;8.07;;
25249;SDS011;13201;51.148;13.738;2023-03-01T14:51:28;16.45;;;8.52;;
25249;SDS011;13201;51.148;13.738;2023-03-01T14:53:53;17.00;;;8.60;;
25249;SDS011;13201;51.148;13.738;2023-03-01T14:56:20;21.70;;;10.37;;
25249;SDS011;13201;51.148;13.738;2023-03-01T14:58:46;19.10;;;8.10;;
25249;SDS011;13201;51.148;13.738;2023-03-01T15:01:16;31.88;;;14.50;;
25249;SDS011;13201;51.148;13.738;2023-03-01T15:06:11;16.83;;;8.52;;
25249;SDS011;13201;51.148;13.738;2023-03-01T15:08:42;18.80;;;8.80;;
25249;SDS011;13201;51.148;13.738;2023-03-01T15:11:28;16.92;;;9.05;;
25249;SDS011;13201;51.148;13.738;2023-03-01T15:13:56;14.82;;;8.13;;
25249;SDS011;13201;51.148;13.738;2023-03-01T15:16:26;18.02;;;9.40;;
25249;SDS011;13201;51.148;13.738;2023-03-01T15:18:59;18.85;;;8.95;;
25249;SDS011;13201;51.148;13.738;2023-03-01T15:26:32;19.55;;;9.15;;
25249;SDS011;13201;51.148;13.738;2023-03-01T15:29:02;16.92;;;9.27;;
25249;SDS011;13201;51.148;13.738;2023-03-01T15:31:29;18.17;;;9.00;;
25249;SDS011;13201;51.148;13.738;2023-03-01T15:39:03;17.55;;;8.90;;
25249;SDS011;13201;51.148;13.738;2023-03-01T15:46:53;18.42;;;8.95;;
25249;SDS011;13201;51.148;13.738;2023-03-01T15:52:04;17.05;;;8.30;;
25249;SDS011;13201;51.148;13.738;2023-03-01T15:54:36;16.25;;;8.63;;
25249;SDS011;13201;51.148;13.738;2023-03-01T15:57:08;18.23;;;8.52;;
25249;SDS011;13201;51.148;13.738;2023-03-01T15:59:38;13.80;;;7.43;;
25249;SDS011;13201;51.148;13.738;2023-03-01T16:02:08;16.05;;;8.23;;
25249;SDS011;13201;51.148;13.738;2023-03-01T16:04:39;17.13;;;8.65;;
25249;SDS011;13201;51.148;13.738;2023-03-01T16:07:05;12.68;;;7.45;;
25249;SDS011;13201;51.148;13.738;2023-03-01T16:09:31;15.73;;;8.45;;
25249;SDS011;13201;51.148;13.738;2023-03-01T16:11:57;16.63;;;8.07;;
25249;SDS011;13201;51.148;13.738;2023-03-01T16:14:23;17.20;;;7.93;;
25249;SDS011;13201;51.148;13.738;2023-03-01T16:16:49;30.38;;;14.38;;
25249;SDS011;13201;51.148;13.738;2023-03-01T16:19:15;28.13;;;13.80;;
25249;SDS011;13201;51.148;13.738;2023-03-01T16:21:41;16.27;;;8.13;;
25249;SDS011;13201;51.148;13.738;2023-03-01T16:26:35;13.77;;;7.57;;
25249;SDS011;13201;51.148;13.738;2023-03-01T16:29:02;14.88;;;7.47;;
25249;SDS011;13201;51.148;13.738;2023-03-01T16:31:28;26.92;;;12.85;;
25249;SDS011;13201;51.148;13.738;2023-03-01T16:33:55;27.10;;;13.40;;
25249;SDS011;13201;51.148;13.738;2023-03-01T16:36:22;33.95;;;15.80;;
25249;SDS011;13201;51.148;13.738;2023-03-01T16:38:50;33.75;;;15.98;;
25249;SDS011;13201;51.148;13.738;2023-03-01T16:41:17;36.03;;;17.05;;
25249;SDS011;13201;51.148;13.738;2023-03-01T16:43:45;38.13;;;17.75;;
25249;SDS011;13201;51.148;13.738;2023-03-01T16:46:12;53.50;;;22.95;;
25249;SDS011;13201;51.148;13.738;2023-03-01T16:48:47;64.43;;;26.05;;
25249;SDS011;13201;51.148;13.738;2023-03-01T16:51:13;58.50;;;23.75;;
25249;SDS011;13201;51.148;13.738;2023-03-01T16:53:39;53.20;;;22.80;;
25249;SDS011;13201;51.148;13.738;2023-03-01T16:56:06;35.38;;;16.48;;
25249;SDS011;13201;51.148;13.738;2023-03-01T16:58:34;39.20;;;16.60;;
25249;SDS011;13201;51.148;13.738;2023-03-01T17:01:14;33.42;;;14.23;;
25249;SDS011;13201;51.148;13.738;2023-03-01T17:03:42;28.17;;;12.20;;
25249;SDS011;13201;51.148;13.738;2023-03-01T17:06:12;27.98;;;12.75;;
25249;SDS011;13201;51.148;13.738;2023-03-01T17:08:39;29.33;;;12.98;;
25249;SDS011;13201;51.148;13.738;2023-03-01T17:11:06;40.17;;;17.80;;
25249;SDS011;13201;51.148;13.738;2023-03-01T17:13:34;34.60;;;15.13;;
25249;SDS011;13201;51.148;13.738;2023-03-01T17:18:30;45.08;;;20.23;;
25249;SDS011;13201;51.148;13.738;2023-03-01T17:20:56;44.72;;;21.38;;
25249;SDS011;13201;51.148;13.738;2023-03-01T17:23:22;52.85;;;24.25;;
25249;SDS011;13201;51.148;13.738;2023-03-01T17:25:48;54.95;;;24.63;;
25249;SDS011;13201;51.148;13.738;2023-03-01T17:28:13;42.83;;;20.55;;
25249;SDS011;13201;51.148;13.738;2023-03-01T17:30:43;47.40;;;20.97;;
25249;SDS011;13201;51.148;13.738;2023-03-01T17:33:09;36.13;;;17.25;;
25249;SDS011;13201;51.148;13.738;2023-03-01T17:35:36;31.63;;;14.18;;
25249;SDS011;13201;51.148;13.738;2023-03-01T17:38:05;30.67;;;14.67;;
25249;SDS011;13201;51.148;13.738;2023-03-01T17:40:32;29.52;;;14.27;;
25249;SDS011;13201;51.148;13.738;2023-03-01T17:42:59;24.95;;;12.85;;
25249;SDS011;13201;51.148;13.738;2023-03-01T17:45:26;27.90;;;12.70;;
25249;SDS011;13201;51.148;13.738;2023-03-01T17:47:51;27.65;;;13.38;;
25249;SDS011;13201;51.148;13.738;2023-03-01T17:50:17;30.60;;;13.85;;
25249;SDS011;13201;51.148;13.738;2023-03-01T17:52:43;25.50;;;11.43;;
25249;SDS011;13201;51.148;13.738;2023-03-01T17:55:08;28.27;;;13.05;;
25249;SDS011;13201;51.148;13.738;2023-03-01T17:57:38;26.77;;;13.32;;
25249;SDS011;13201;51.148;13.738;2023-03-01T18:00:05;39.83;;;16.85;;
25249;SDS011;13201;51.148;13.738;2023-03-01T18:02:33;19.75;;;9.65;;
25249;SDS011;13201;51.148;13.738;2023-03-01T18:04:59;24.20;;;11.20;;
25249;SDS011;13201;51.148;13.738;2023-03-01T18:07:25;22.98;;;11.82;;
25249;SDS011;13201;51.148;13.738;2023-03-01T18:09:51;32.25;;;14.05;;
25249;SDS011;13201;51.148;13.738;2023-03-01T18:12:17;26.67;;;12.20;;
25249;SDS011;13201;51.148;13.738;2023-03-01T18:14:42;36.55;;;15.38;;
25249;SDS011;13201;51.148;13.738;2023-03-01T18:17:08;26.58;;;12.23;;
25249;SDS011;13201;51.148;13.738;2023-03-01T18:19:38;22.13;;;10.65;;
25249;SDS011;13201;51.148;13.738;2023-03-01T18:22:08;19.23;;;9.80;;